To NAV CANADA Home Page Login to a new session Search on AWWS site Feedback and Comments Disclaimer Vers la page française équivalente Tips FAQ What's new on the site To the Forecasts and Observations / NOTAM section To "File a Flight Plan" website Publications and other links Update of the User's profile FIC Telephone Numbers My Weather Data Folder Route Weather Data Regional Weather Data Local Weather Data To the Forecasts and Observations / NOTAM section
Request Generated 10/17/2017 at 01:48:31 UTC . Weather information available at that time is displayed.

METAR/TAF

YARMOUTH/NS    

METAR CYQI 170100Z 36007KT 15SM FEW032 OVC170 09/06 A2995 RMK SC1AC7
PRESRR SLP145=
METAR CYQI 170000Z 01006KT 15SM OVC120 09/05 A2995 RMK AC8 SLP143=
METAR CYQI 162300Z 35009KT 15SM SCT130 OVC160 10/05 A2992 RMK AC3AC5
PRESRR SLP136=

TAF CYQI 162338Z 1700/1712 35010KT P6SM SCT130 OVC160
FM170600 35012G22KT P6SM BKN040
RMK NXT FCST BY 170600Z=
Your time UTC time
Weather data provided by Environment Canada and NAV CANADA